createdAt,value
2022-08-19T00:00:27.145Z,973.51
2022-08-19T00:01:28.804Z,973.56
2022-08-19T00:02:27.115Z,973.52
2022-08-19T00:03:27.275Z,973.56
2022-08-19T00:04:27.255Z,973.60
2022-08-19T00:05:27.045Z,973.59
2022-08-19T00:06:27.106Z,973.59
2022-08-19T00:07:27.283Z,973.55
2022-08-19T00:08:27.121Z,973.61
2022-08-19T00:09:27.271Z,973.63
2022-08-19T00:10:27.180Z,973.69
2022-08-19T00:11:26.986Z,973.75
2022-08-19T00:12:27.109Z,973.76
2022-08-19T00:13:26.940Z,973.73
2022-08-19T00:14:26.947Z,973.64
2022-08-19T00:15:27.020Z,973.66
2022-08-19T00:16:27.133Z,973.62
2022-08-19T00:17:26.908Z,973.66
2022-08-19T00:18:27.106Z,973.59
2022-08-19T00:19:26.954Z,973.62
2022-08-19T00:20:27.115Z,973.64
2022-08-19T00:21:26.945Z,973.70
2022-08-19T00:22:27.115Z,973.78
2022-08-19T00:23:26.955Z,973.76
2022-08-19T00:24:26.807Z,973.77
2022-08-19T00:25:30.240Z,973.77
2022-08-19T00:26:26.875Z,973.73
2022-08-19T00:27:27.005Z,973.79
2022-08-19T00:28:26.789Z,973.75
2022-08-19T00:29:26.753Z,973.81
2022-08-19T00:30:26.781Z,973.83
2022-08-19T00:31:26.697Z,973.87
2022-08-19T00:32:27.218Z,973.91
2022-08-19T00:33:26.951Z,973.93
2022-08-19T00:34:26.771Z,973.95
2022-08-19T00:35:26.650Z,974.05
2022-08-19T00:36:26.630Z,974.05
2022-08-19T00:37:26.636Z,974.09
2022-08-19T00:38:35.266Z,974.04
2022-08-19T00:39:26.635Z,974.08
2022-08-19T00:40:26.607Z,974.05
2022-08-19T00:41:26.626Z,974.10
2022-08-19T00:42:26.786Z,974.03
2022-08-19T00:43:26.717Z,974.01
2022-08-19T00:44:27.178Z,973.99
2022-08-19T00:45:26.635Z,974.00
2022-08-19T00:46:26.505Z,974.00
2022-08-19T00:47:26.639Z,974.05
2022-08-19T00:48:26.570Z,974.03
2022-08-19T00:49:26.640Z,974.03
2022-08-19T00:50:26.461Z,973.95
2022-08-19T00:51:26.620Z,973.91
2022-08-19T00:52:26.450Z,973.97
2022-08-19T00:53:26.420Z,973.96
2022-08-19T00:54:28.626Z,973.94
2022-08-19T00:55:26.380Z,974.00
2022-08-19T00:56:26.461Z,973.92
2022-08-19T00:57:26.376Z,973.97
2022-08-19T00:58:26.466Z,973.97
2022-08-19T01:00:00.943Z,974.01
2022-08-19T01:00:26.545Z,974.01
2022-08-19T01:01:26.345Z,974.02
2022-08-19T01:02:26.347Z,974.05
2022-08-19T01:03:26.306Z,974.02
2022-08-19T01:04:26.455Z,974.01
2022-08-19T01:05:26.376Z,974.08
2022-08-19T01:06:26.283Z,974.15
2022-08-19T01:07:26.300Z,974.15
2022-08-19T01:08:26.481Z,974.11
2022-08-19T01:09:26.300Z,974.02
2022-08-19T01:10:26.194Z,974.06
2022-08-19T01:11:26.381Z,973.96
2022-08-19T01:12:26.207Z,973.97
2022-08-19T01:13:26.162Z,973.95
2022-08-19T01:14:26.129Z,973.97
2022-08-19T01:15:26.167Z,973.89
2022-08-19T01:16:26.250Z,973.93
2022-08-19T01:17:26.089Z,973.91
2022-08-19T01:18:26.155Z,973.87
2022-08-19T01:19:26.325Z,973.95
2022-08-19T01:20:26.135Z,973.97
2022-08-19T01:21:26.045Z,974.01
2022-08-19T01:22:31.462Z,974.00
2022-08-19T01:23:26.027Z,973.99
2022-08-19T01:24:26.147Z,974.05
2022-08-19T01:25:25.984Z,974.07
2022-08-19T01:26:26.008Z,974.07
2022-08-19T01:27:25.975Z,974.08
2022-08-19T01:28:33.864Z,974.08
2022-08-19T01:29:25.990Z,974.10
2022-08-19T01:30:25.941Z,974.09
2022-08-19T01:31:27.189Z,974.08
2022-08-19T01:32:33.411Z,974.03
2022-08-19T01:33:25.970Z,973.98
2022-08-19T01:34:25.934Z,974.03
2022-08-19T01:35:25.970Z,973.97
2022-08-19T01:36:26.142Z,974.00
2022-08-19T01:37:27.352Z,974.01
2022-08-19T01:38:25.837Z,973.97
2022-08-19T01:39:25.896Z,973.95
2022-08-19T01:40:25.907Z,973.96
2022-08-19T01:41:25.995Z,973.95
2022-08-19T01:42:29.916Z,973.89
2022-08-19T01:43:25.964Z,973.90
2022-08-19T01:44:25.888Z,973.87
2022-08-19T01:45:25.996Z,973.94
2022-08-19T01:46:25.734Z,973.91
2022-08-19T01:47:25.745Z,973.87
2022-08-19T01:48:25.840Z,973.74
2022-08-19T01:49:25.781Z,973.68
2022-08-19T01:50:25.700Z,973.58
2022-08-19T01:51:25.707Z,973.51
2022-08-19T01:52:25.840Z,973.44
2022-08-19T01:53:26.647Z,973.38
2022-08-19T01:54:27.324Z,973.35
2022-08-19T01:55:25.739Z,973.36
2022-08-19T01:56:25.840Z,973.40
2022-08-19T01:57:25.600Z,973.46
2022-08-19T01:58:25.615Z,973.56
2022-08-19T01:59:25.675Z,973.61
2022-08-19T02:00:25.605Z,973.71
2022-08-19T02:01:25.591Z,973.88
2022-08-19T02:02:25.588Z,973.90
2022-08-19T02:03:25.654Z,974.02
2022-08-19T02:04:25.545Z,973.97
2022-08-19T02:05:25.749Z,973.91
2022-08-19T02:06:26.957Z,973.80
2022-08-19T02:07:25.666Z,973.75
2022-08-19T02:08:25.531Z,973.66
2022-08-19T02:09:25.431Z,973.67
2022-08-19T02:10:25.552Z,973.65
2022-08-19T02:11:25.431Z,973.61
2022-08-19T02:12:25.604Z,973.59
2022-08-19T02:13:26.356Z,973.55
2022-08-19T02:14:25.511Z,973.53
2022-08-19T02:15:25.371Z,973.43
2022-08-19T02:16:25.490Z,973.47
2022-08-19T02:17:25.421Z,973.50
2022-08-19T02:18:28.081Z,973.53
2022-08-19T02:19:25.355Z,973.47
2022-08-19T02:20:25.506Z,973.51
2022-08-19T02:21:25.356Z,973.44
2022-08-19T02:22:25.585Z,973.39
2022-08-19T02:23:25.344Z,973.33
2022-08-19T02:24:25.235Z,973.42
2022-08-19T02:25:25.352Z,973.40
2022-08-19T02:26:25.205Z,973.51
2022-08-19T02:27:25.676Z,973.58
2022-08-19T02:28:25.165Z,973.61
2022-08-19T02:29:25.200Z,973.63
2022-08-19T02:30:25.200Z,973.67
2022-08-19T02:31:25.608Z,973.65
2022-08-19T02:32:25.201Z,973.70
2022-08-19T02:33:25.371Z,973.72
2022-08-19T02:34:25.200Z,973.74
2022-08-19T02:35:25.350Z,973.72
2022-08-19T02:36:25.219Z,973.74
2022-08-19T02:37:25.061Z,973.73
2022-08-19T02:38:25.191Z,973.73
2022-08-19T02:39:25.115Z,973.68
2022-08-19T02:40:25.037Z,973.73
2022-08-19T02:41:26.995Z,973.75
2022-08-19T02:42:25.195Z,973.75
2022-08-19T02:43:25.035Z,973.81
2022-08-19T02:44:31.301Z,973.80
2022-08-19T02:45:25.096Z,973.91
2022-08-19T02:46:25.195Z,973.92
2022-08-19T02:47:25.015Z,973.91
2022-08-19T02:48:24.925Z,973.89
2022-08-19T02:49:25.067Z,973.87
2022-08-19T02:50:24.970Z,973.83
2022-08-19T02:51:25.030Z,973.85
2022-08-19T02:52:24.881Z,973.91
2022-08-19T02:53:25.030Z,973.88
2022-08-19T02:54:24.881Z,973.93
2022-08-19T02:55:24.908Z,973.88
2022-08-19T02:56:24.880Z,973.87
2022-08-19T02:57:25.040Z,973.88
2022-08-19T02:58:25.107Z,973.83
2022-08-19T02:59:24.787Z,973.80
2022-08-19T03:00:24.876Z,973.83
2022-08-19T03:01:25.160Z,973.80
2022-08-19T03:02:24.866Z,973.81
2022-08-19T03:03:24.725Z,973.82
2022-08-19T03:04:24.735Z,973.82
2022-08-19T03:05:25.272Z,973.76
2022-08-19T03:06:24.875Z,973.74
2022-08-19T03:07:24.706Z,973.72
2022-08-19T03:08:24.666Z,973.73
2022-08-19T03:09:24.721Z,973.80
2022-08-19T03:10:24.661Z,973.83
2022-08-19T03:11:24.721Z,973.84
2022-08-19T03:12:24.880Z,973.87
2022-08-19T03:13:24.710Z,973.91
2022-08-19T03:14:24.590Z,973.97
2022-08-19T03:15:24.710Z,973.99
2022-08-19T03:16:24.851Z,974.04
2022-08-19T03:17:24.540Z,974.09
2022-08-19T03:18:24.627Z,974.09
2022-08-19T03:19:24.510Z,974.07
2022-08-19T03:20:24.568Z,974.12
2022-08-19T03:21:24.515Z,974.14
2022-08-19T03:22:24.554Z,974.19
2022-08-19T03:23:24.465Z,974.16
2022-08-19T03:24:24.607Z,974.17
2022-08-19T03:25:24.435Z,974.24
2022-08-19T03:26:24.545Z,974.25
2022-08-19T03:27:24.685Z,974.28
2022-08-19T03:28:24.548Z,974.27
2022-08-19T03:29:30.762Z,974.24
2022-08-19T03:30:24.423Z,974.30
2022-08-19T03:31:44.462Z,974.30
2022-08-19T03:32:32.342Z,974.32
2022-08-19T03:33:24.945Z,974.29
2022-08-19T03:34:24.410Z,974.23
2022-08-19T03:35:24.380Z,974.14
2022-08-19T03:36:24.530Z,974.10
2022-08-19T03:37:24.380Z,974.11
2022-08-19T03:38:24.269Z,974.10
2022-08-19T03:39:24.441Z,974.17
2022-08-19T03:40:24.235Z,974.15
2022-08-19T03:41:24.235Z,974.24
2022-08-19T03:42:45.354Z,974.23
2022-08-19T03:43:24.385Z,974.22
2022-08-19T03:44:24.304Z,974.25
2022-08-19T03:45:24.185Z,974.19
2022-08-19T03:46:24.268Z,974.29
2022-08-19T03:47:24.426Z,974.29
2022-08-19T03:48:24.215Z,974.28
2022-08-19T03:49:28.284Z,974.32
2022-08-19T03:50:24.306Z,974.24
2022-08-19T03:51:30.856Z,974.34
2022-08-19T03:52:24.229Z,974.36
2022-08-19T03:53:24.070Z,974.41
2022-08-19T03:54:24.210Z,974.45
2022-08-19T03:55:24.060Z,974.46
2022-08-19T03:56:24.328Z,974.48
2022-08-19T03:57:31.761Z,974.51
2022-08-19T03:58:23.990Z,974.56
2022-08-19T03:59:24.060Z,974.65
2022-08-19T04:00:24.213Z,974.66
2022-08-19T04:01:34.900Z,974.69
2022-08-19T04:02:24.044Z,974.64
2022-08-19T04:03:24.075Z,974.75
2022-08-19T04:04:23.917Z,974.81
2022-08-19T04:05:24.705Z,974.82
2022-08-19T04:06:23.896Z,974.85
2022-08-19T04:07:23.866Z,974.82
2022-08-19T04:08:23.986Z,974.83
2022-08-19T04:09:23.846Z,974.91
2022-08-19T04:10:23.927Z,974.91
2022-08-19T04:11:24.070Z,974.95
2022-08-19T04:12:23.920Z,974.97
2022-08-19T04:13:24.140Z,975.02
2022-08-19T04:14:23.919Z,975.00
2022-08-19T04:15:23.761Z,975.02
2022-08-19T04:16:23.920Z,975.11
2022-08-19T04:17:23.761Z,975.10
2022-08-19T04:18:23.911Z,975.18
2022-08-19T04:19:23.802Z,975.24
2022-08-19T04:20:23.900Z,975.29
2022-08-19T04:21:23.760Z,975.28
2022-08-19T04:22:23.696Z,975.29
2022-08-19T04:23:23.755Z,975.24
2022-08-19T04:24:23.664Z,975.33
2022-08-19T04:25:23.765Z,975.35
2022-08-19T04:26:23.625Z,975.36
2022-08-19T04:27:23.787Z,975.53
2022-08-19T04:28:23.628Z,975.58
2022-08-19T04:29:23.575Z,975.61
2022-08-19T04:30:23.645Z,975.66
2022-08-19T04:31:23.545Z,975.69
2022-08-19T04:32:23.551Z,975.66
2022-08-19T04:33:26.468Z,975.64
2022-08-19T04:34:23.644Z,975.63
2022-08-19T04:35:25.046Z,975.74
2022-08-19T04:36:23.570Z,975.73
2022-08-19T04:37:23.730Z,975.77
2022-08-19T04:38:23.593Z,975.75
2022-08-19T04:39:23.472Z,975.76
2022-08-19T04:40:23.689Z,975.74
2022-08-19T04:41:23.446Z,975.66
2022-08-19T04:42:23.425Z,975.70
2022-08-19T04:43:23.435Z,975.64
2022-08-19T04:44:23.410Z,975.66
2022-08-19T04:45:23.501Z,975.63
2022-08-19T04:46:39.141Z,975.53
2022-08-19T04:47:47.591Z,975.48
2022-08-19T04:48:27.674Z,975.43
2022-08-19T04:49:23.506Z,975.40
2022-08-19T04:50:23.574Z,975.32
2022-08-19T04:51:23.485Z,975.26
2022-08-19T04:52:23.607Z,975.24
2022-08-19T04:53:23.299Z,975.22
2022-08-19T04:54:37.459Z,975.29
2022-08-19T04:55:23.260Z,975.37
2022-08-19T04:56:23.371Z,975.39
2022-08-19T04:57:23.220Z,975.47
2022-08-19T04:58:23.280Z,975.50
2022-08-19T04:59:23.431Z,975.46
2022-08-19T05:00:23.253Z,975.47
2022-08-19T05:01:23.223Z,975.48
2022-08-19T05:02:23.356Z,975.37
2022-08-19T05:03:26.488Z,975.34
2022-08-19T05:04:23.275Z,975.20
2022-08-19T05:05:23.135Z,975.25
2022-08-19T05:06:23.266Z,975.21
2022-08-19T05:07:23.176Z,975.18
2022-08-19T05:08:30.753Z,975.21
2022-08-19T05:09:23.104Z,975.23
2022-08-19T05:10:23.274Z,975.31
2022-08-19T05:11:26.448Z,975.37
2022-08-19T05:12:24.792Z,975.37
2022-08-19T05:13:23.120Z,975.39
2022-08-19T05:14:23.281Z,975.44
2022-08-19T05:15:23.120Z,975.43
2022-08-19T05:16:22.979Z,975.37
2022-08-19T05:17:27.618Z,975.37
2022-08-19T05:18:22.950Z,975.27
2022-08-19T05:19:22.930Z,975.28
2022-08-19T05:20:22.940Z,975.24
2022-08-19T05:21:23.091Z,975.20
2022-08-19T05:22:23.001Z,975.20
2022-08-19T05:23:23.189Z,975.15
2022-08-19T05:24:22.944Z,975.12
2022-08-19T05:25:23.114Z,975.14
2022-08-19T05:26:22.946Z,975.16
2022-08-19T05:27:22.948Z,975.09
2022-08-19T05:28:22.954Z,975.11
2022-08-19T05:29:23.097Z,975.11
2022-08-19T05:30:33.517Z,975.14
2022-08-19T05:31:22.795Z,975.09
2022-08-19T05:32:22.787Z,975.06
2022-08-19T05:33:22.840Z,974.99
2022-08-19T05:34:22.760Z,975.03
2022-08-19T05:35:22.812Z,975.07
2022-08-19T05:36:22.940Z,975.12
2022-08-19T05:37:22.828Z,975.04
2022-08-19T05:38:22.950Z,975.03
2022-08-19T05:39:22.787Z,974.97
2022-08-19T05:40:23.010Z,974.90
2022-08-19T05:41:22.821Z,974.90
2022-08-19T05:42:22.647Z,974.86
2022-08-19T05:43:22.805Z,974.79
2022-08-19T05:44:22.624Z,974.70
2022-08-19T05:45:22.605Z,974.73
2022-08-19T05:46:27.915Z,974.74
2022-08-19T05:47:22.577Z,974.64
2022-08-19T05:48:22.697Z,974.62
2022-08-19T05:49:22.537Z,974.51
2022-08-19T05:50:22.649Z,974.45
2022-08-19T05:51:25.262Z,974.46
2022-08-19T05:52:25.769Z,974.44
2022-08-19T05:53:22.475Z,974.43
2022-08-19T05:54:22.540Z,974.45
2022-08-19T05:55:22.508Z,974.50
2022-08-19T05:56:22.660Z,974.58
2022-08-19T05:57:22.472Z,974.66
2022-08-19T05:58:23.102Z,974.70
2022-08-19T05:59:22.521Z,974.67
2022-08-19T06:00:24.685Z,974.71
2022-08-19T06:01:22.467Z,974.80
2022-08-19T06:02:22.647Z,974.80
2022-08-19T06:03:22.469Z,974.91
2022-08-19T06:04:22.435Z,974.93
2022-08-19T06:05:22.465Z,974.92
2022-08-19T06:06:22.317Z,974.93
2022-08-19T06:07:22.384Z,974.95
2022-08-19T06:08:34.537Z,974.95
2022-08-19T06:09:22.284Z,974.91
2022-08-19T06:10:22.375Z,974.87
2022-08-19T06:11:22.245Z,974.90
2022-08-19T06:12:22.286Z,974.88
2022-08-19T06:13:22.453Z,974.90
2022-08-19T06:14:22.310Z,974.88
2022-08-19T06:15:22.480Z,974.82
2022-08-19T06:16:22.370Z,974.86
2022-08-19T06:17:22.169Z,974.82
2022-08-19T06:18:22.303Z,974.89
2022-08-19T06:19:22.160Z,974.93
2022-08-19T06:20:39.760Z,974.89
2022-08-19T06:21:22.273Z,974.93
2022-08-19T06:22:22.308Z,974.89
2022-08-19T06:23:24.284Z,975.03
2022-08-19T06:24:22.306Z,975.06
2022-08-19T06:25:22.145Z,975.07
2022-08-19T06:26:22.107Z,975.11
2022-08-19T06:27:22.227Z,975.06
2022-08-19T06:28:22.587Z,975.00
2022-08-19T06:29:23.700Z,975.01
2022-08-19T06:30:21.986Z,974.96
2022-08-19T06:31:22.155Z,974.96
2022-08-19T06:32:22.069Z,975.02
2022-08-19T06:33:22.162Z,974.99
2022-08-19T06:34:22.011Z,975.06
2022-08-19T06:35:22.154Z,975.05
2022-08-19T06:36:22.037Z,975.05
2022-08-19T06:37:21.970Z,974.93
2022-08-19T06:38:22.000Z,974.96
2022-08-19T06:39:21.926Z,974.98
2022-08-19T06:40:22.076Z,974.95
2022-08-19T06:41:21.840Z,974.95
2022-08-19T06:42:21.892Z,974.95
2022-08-19T06:43:21.837Z,974.93
2022-08-19T06:44:21.996Z,974.99
2022-08-19T06:45:25.135Z,974.99
2022-08-19T06:46:21.815Z,974.99
2022-08-19T06:47:23.079Z,975.01
2022-08-19T06:48:21.977Z,975.06
2022-08-19T06:49:21.820Z,975.07
2022-08-19T06:50:21.768Z,975.12
2022-08-19T06:51:21.851Z,975.16
2022-08-19T06:52:21.761Z,975.23
2022-08-19T06:53:21.900Z,975.20
2022-08-19T06:54:21.691Z,975.16
2022-08-19T06:55:21.868Z,975.22
2022-08-19T06:56:21.681Z,975.15
2022-08-19T06:57:21.641Z,975.13
2022-08-19T06:58:21.742Z,975.18
2022-08-19T06:59:21.821Z,975.16
2022-08-19T07:00:21.755Z,975.16
2022-08-19T07:01:21.594Z,975.16
2022-08-19T07:02:22.053Z,975.20
2022-08-19T07:03:21.617Z,975.18
2022-08-19T07:04:21.680Z,975.16
2022-08-19T07:05:21.816Z,975.19
2022-08-19T07:07:21.949Z,975.28
2022-08-19T07:08:21.695Z,975.38
2022-08-19T07:09:21.507Z,975.33
2022-08-19T07:10:21.475Z,975.34
2022-08-19T07:11:21.512Z,975.36
2022-08-19T07:12:22.684Z,975.40
2022-08-19T07:13:21.522Z,975.34
2022-08-19T07:14:21.730Z,975.29
2022-08-19T07:15:21.490Z,975.31
2022-08-19T07:16:21.380Z,975.26
2022-08-19T07:17:21.495Z,975.27
2022-08-19T07:18:21.381Z,975.24
2022-08-19T07:19:21.341Z,975.17
2022-08-19T07:20:21.436Z,975.21
2022-08-19T07:21:21.337Z,975.22
2022-08-19T07:22:21.367Z,975.18
2022-08-19T07:23:21.329Z,975.22
2022-08-19T07:24:21.388Z,975.21
2022-08-19T07:25:21.561Z,975.21
2022-08-19T07:26:21.426Z,975.26
2022-08-19T07:27:24.569Z,975.26
2022-08-19T07:28:24.270Z,975.29
2022-08-19T07:29:21.290Z,975.29
2022-08-19T07:30:21.376Z,975.25
2022-08-19T07:31:23.819Z,975.13
2022-08-19T07:32:21.360Z,975.15
2022-08-19T07:33:21.212Z,975.08
2022-08-19T07:34:21.350Z,975.03
2022-08-19T07:35:21.189Z,974.96
2022-08-19T07:36:21.443Z,974.94
2022-08-19T07:37:21.201Z,974.90
2022-08-19T07:38:21.356Z,974.93
2022-08-19T07:39:21.227Z,974.96
2022-08-19T07:40:21.139Z,975.01
2022-08-19T07:41:21.319Z,975.03
2022-08-19T07:42:21.075Z,975.00
2022-08-19T07:43:21.177Z,974.97
2022-08-19T07:44:21.036Z,974.99
2022-08-19T07:45:21.017Z,974.98
2022-08-19T07:46:21.017Z,975.05
2022-08-19T07:47:58.577Z,975.17
2022-08-19T07:48:21.020Z,975.15
2022-08-19T07:49:20.964Z,975.15
2022-08-19T07:50:21.173Z,975.19
2022-08-19T07:51:36.746Z,975.22
2022-08-19T07:52:21.147Z,975.16
2022-08-19T07:53:21.171Z,975.14
2022-08-19T07:54:21.021Z,975.09
2022-08-19T07:55:41.183Z,975.13
2022-08-19T07:56:21.036Z,975.13
2022-08-19T07:57:20.988Z,975.17
2022-08-19T07:58:20.849Z,975.18
2022-08-19T07:59:20.877Z,975.14
2022-08-19T08:00:23.766Z,975.19
2022-08-19T08:01:20.911Z,975.11
2022-08-19T08:02:20.917Z,975.09
2022-08-19T08:03:20.856Z,975.07
2022-08-19T08:04:20.769Z,975.11
2022-08-19T08:05:20.875Z,975.08
2022-08-19T08:06:20.787Z,975.05
2022-08-19T08:07:20.809Z,974.93
2022-08-19T08:08:20.719Z,974.93
2022-08-19T08:10:21.545Z,974.86
2022-08-19T08:11:20.884Z,974.76
2022-08-19T08:12:33.627Z,974.95
2022-08-19T08:13:20.648Z,974.98
2022-08-19T08:14:29.288Z,974.87
2022-08-19T08:15:20.865Z,974.91
2022-08-19T08:16:20.728Z,974.83
2022-08-19T08:17:31.029Z,974.79
2022-08-19T08:18:20.776Z,974.78
2022-08-19T08:19:25.667Z,974.74
2022-08-19T08:20:20.708Z,974.81
2022-08-19T08:21:20.567Z,974.80
2022-08-19T08:22:20.695Z,974.71
2022-08-19T08:23:20.609Z,974.79
2022-08-19T08:24:20.512Z,974.79
2022-08-19T08:25:20.541Z,974.78
2022-08-19T08:26:20.701Z,974.77
2022-08-19T08:27:22.624Z,974.76
2022-08-19T08:28:20.511Z,974.80
2022-08-19T08:29:20.541Z,974.76
2022-08-19T08:30:20.420Z,974.72
2022-08-19T08:31:20.531Z,974.69
2022-08-19T08:32:20.395Z,974.63
2022-08-19T08:33:34.010Z,974.60
2022-08-19T08:34:20.457Z,974.62
2022-08-19T08:35:20.568Z,974.58
2022-08-19T08:36:20.386Z,974.66
2022-08-19T08:37:20.545Z,974.62
2022-08-19T08:38:20.376Z,974.62
2022-08-19T08:39:20.377Z,974.67
2022-08-19T08:40:20.501Z,974.62
2022-08-19T08:41:20.430Z,974.63
2022-08-19T08:42:20.401Z,974.53
2022-08-19T08:43:20.264Z,974.51
2022-08-19T08:44:20.322Z,974.55
2022-08-19T08:45:20.231Z,974.57
2022-08-19T08:46:30.850Z,974.54
2022-08-19T08:47:20.248Z,974.53
2022-08-19T08:48:22.472Z,974.51
2022-08-19T08:49:20.222Z,974.51
2022-08-19T08:50:20.475Z,974.50
2022-08-19T08:51:20.628Z,974.46
2022-08-19T08:52:20.409Z,974.44
2022-08-19T08:53:29.827Z,974.52
2022-08-19T08:54:20.147Z,974.55
2022-08-19T08:55:20.611Z,974.51
2022-08-19T08:56:20.393Z,974.49
2022-08-19T08:57:20.066Z,974.43
2022-08-19T08:58:20.086Z,974.46
2022-08-19T08:59:20.240Z,974.42
2022-08-19T09:00:20.081Z,974.40
2022-08-19T09:01:20.150Z,974.32
2022-08-19T09:02:20.069Z,974.29
2022-08-19T09:03:20.010Z,974.28
2022-08-19T09:04:20.060Z,974.33
2022-08-19T09:05:22.366Z,974.34
2022-08-19T09:06:20.152Z,974.41
2022-08-19T09:07:35.521Z,974.52
2022-08-19T09:08:20.087Z,974.44
2022-08-19T09:09:20.236Z,974.45
2022-08-19T09:10:19.916Z,974.42
2022-08-19T09:11:42.870Z,974.47
2022-08-19T09:12:20.146Z,974.51
2022-08-19T09:13:19.925Z,974.57
2022-08-19T09:14:47.422Z,974.51
2022-08-19T09:15:19.900Z,974.53
2022-08-19T09:16:21.061Z,974.56
2022-08-19T09:17:20.240Z,974.57
2022-08-19T09:18:19.887Z,974.54
2022-08-19T09:19:22.264Z,974.51
2022-08-19T09:20:19.794Z,974.52
2022-08-19T09:21:21.872Z,974.42
2022-08-19T09:22:25.842Z,974.53
2022-08-19T09:23:27.027Z,974.48
2022-08-19T09:24:19.740Z,974.52
2022-08-19T09:25:26.832Z,974.52
2022-08-19T09:26:20.021Z,974.55
2022-08-19T09:27:19.912Z,974.58
2022-08-19T09:28:22.642Z,974.63
2022-08-19T09:29:19.693Z,974.69
2022-08-19T09:30:19.657Z,974.68
2022-08-19T09:31:19.917Z,974.72
2022-08-19T09:32:26.486Z,974.62
2022-08-19T09:33:19.895Z,974.65
2022-08-19T09:34:21.733Z,974.70
2022-08-19T09:35:19.591Z,974.72
2022-08-19T09:36:34.446Z,974.65
2022-08-19T09:37:19.600Z,974.78
2022-08-19T09:38:19.760Z,974.73
2022-08-19T09:39:19.681Z,974.84
2022-08-19T09:40:19.832Z,974.78
2022-08-19T09:41:19.582Z,974.73
2022-08-19T09:42:29.793Z,974.75
2022-08-19T09:43:29.045Z,974.76
2022-08-19T09:44:19.519Z,974.73
2022-08-19T09:45:19.673Z,974.84
2022-08-19T09:46:19.466Z,974.84
2022-08-19T09:47:20.005Z,974.78
2022-08-19T09:48:23.661Z,974.73
2022-08-19T09:49:19.575Z,974.73
2022-08-19T09:50:19.445Z,974.67
2022-08-19T09:51:19.680Z,974.64
2022-08-19T09:52:19.440Z,974.60
2022-08-19T09:53:19.600Z,974.55
2022-08-19T09:54:24.196Z,974.52
2022-08-19T09:55:19.380Z,974.56
2022-08-19T09:56:19.508Z,974.46
2022-08-19T09:57:19.581Z,974.55
2022-08-19T09:58:23.419Z,974.51
2022-08-19T09:59:19.299Z,974.56
2022-08-19T10:00:19.438Z,974.60
2022-08-19T10:01:19.408Z,974.60
2022-08-19T10:02:22.149Z,974.65
2022-08-19T10:03:19.276Z,974.61
2022-08-19T10:04:20.527Z,974.65
2022-08-19T10:05:23.168Z,974.69
2022-08-19T10:06:19.275Z,974.69
2022-08-19T10:07:19.273Z,974.66
2022-08-19T10:08:20.711Z,974.67
2022-08-19T10:09:33.696Z,974.63
2022-08-19T10:10:19.447Z,974.64
2022-08-19T10:11:27.278Z,974.64
2022-08-19T10:12:20.153Z,974.58
2022-08-19T10:13:19.110Z,974.56
2022-08-19T10:14:19.101Z,974.58
2022-08-19T10:15:19.080Z,974.56
2022-08-19T10:16:19.128Z,974.56
2022-08-19T10:17:20.733Z,974.48
2022-08-19T10:18:19.454Z,974.49
2022-08-19T10:19:25.417Z,974.42
2022-08-19T10:20:19.024Z,974.40
2022-08-19T10:21:19.256Z,974.37
2022-08-19T10:22:19.104Z,974.33
2022-08-19T10:23:18.986Z,974.40
2022-08-19T10:24:19.175Z,974.38
2022-08-19T10:25:18.945Z,974.34
2022-08-19T10:26:18.949Z,974.30
2022-08-19T10:27:18.939Z,974.25
2022-08-19T10:28:19.676Z,974.24
2022-08-19T10:29:33.083Z,974.30
2022-08-19T10:30:18.933Z,974.24
2022-08-19T10:31:19.526Z,974.19
2022-08-19T10:32:19.089Z,974.17
2022-08-19T10:33:38.935Z,974.14
2022-08-19T10:34:27.597Z,974.16
2022-08-19T10:35:21.798Z,974.13
2022-08-19T10:36:19.126Z,974.08
2022-08-19T10:37:23.702Z,974.02
2022-08-19T10:38:18.785Z,973.99
2022-08-19T10:39:18.795Z,974.03
2022-08-19T10:40:18.959Z,974.07
2022-08-19T10:41:18.954Z,974.01
2022-08-19T10:42:18.775Z,973.99
2022-08-19T10:43:18.728Z,973.94
2022-08-19T10:44:18.799Z,973.92
2022-08-19T10:45:18.699Z,973.98
2022-08-19T10:46:18.799Z,973.98
2022-08-19T10:47:24.949Z,974.00
2022-08-19T10:48:19.471Z,974.02
2022-08-19T10:49:18.630Z,973.99
2022-08-19T10:50:18.817Z,974.08
2022-08-19T10:51:22.449Z,974.09
2022-08-19T10:52:20.758Z,974.11
2022-08-19T10:53:18.636Z,974.12
2022-08-19T10:54:22.316Z,974.11
2022-08-19T10:55:18.760Z,974.17
2022-08-19T10:56:18.795Z,974.13
2022-08-19T10:57:18.687Z,974.13
2022-08-19T10:58:18.525Z,974.13
2022-08-19T10:59:18.635Z,974.12
2022-08-19T11:00:18.516Z,974.15
2022-08-19T11:01:18.643Z,974.16
2022-08-19T11:02:18.550Z,974.12
2022-08-19T11:03:18.620Z,974.14
2022-08-19T11:04:18.480Z,974.09
2022-08-19T11:05:18.609Z,974.18
2022-08-19T11:06:18.471Z,974.16
2022-08-19T11:07:18.451Z,974.15
2022-08-19T11:08:23.863Z,974.12
2022-08-19T11:09:18.621Z,974.10
2022-08-19T11:10:21.627Z,974.15
2022-08-19T11:11:18.635Z,974.13
2022-08-19T11:12:18.535Z,974.11
2022-08-19T11:13:18.635Z,974.14
2022-08-19T11:14:18.316Z,974.09
2022-08-19T11:15:18.346Z,974.15
2022-08-19T11:16:18.295Z,974.20
2022-08-19T11:17:18.296Z,974.23
2022-08-19T11:18:18.326Z,974.25
2022-08-19T11:19:18.319Z,974.21
2022-08-19T11:20:18.239Z,974.21
2022-08-19T11:21:18.332Z,974.26
2022-08-19T11:22:19.524Z,974.20
2022-08-19T11:23:18.419Z,974.24
2022-08-19T11:24:18.475Z,974.23
2022-08-19T11:25:18.300Z,974.21
2022-08-19T11:26:18.154Z,974.25
2022-08-19T11:27:18.309Z,974.28
2022-08-19T11:28:18.158Z,974.25
2022-08-19T11:29:18.194Z,974.21
2022-08-19T11:30:18.097Z,974.26
2022-08-19T11:31:18.346Z,974.23
2022-08-19T11:32:18.145Z,974.22
2022-08-19T11:33:18.315Z,974.25
2022-08-19T11:34:18.044Z,974.24
2022-08-19T11:35:18.391Z,974.22
2022-08-19T11:36:18.155Z,974.25
2022-08-19T11:37:18.046Z,974.24
2022-08-19T11:38:18.166Z,974.26
2022-08-19T11:39:17.990Z,974.21
2022-08-19T11:40:18.128Z,974.17
2022-08-19T11:41:17.970Z,974.16
2022-08-19T11:42:17.949Z,974.20
2022-08-19T11:43:17.990Z,974.17
2022-08-19T11:44:18.140Z,974.18
2022-08-19T11:45:17.980Z,974.13
2022-08-19T11:46:17.956Z,974.13
2022-08-19T11:47:18.007Z,974.17
2022-08-19T11:48:17.855Z,974.20
2022-08-19T11:49:17.996Z,974.20
2022-08-19T11:50:17.837Z,974.22
2022-08-19T11:51:17.985Z,974.22
2022-08-19T11:52:17.913Z,974.21
2022-08-19T11:53:17.785Z,974.18
2022-08-19T11:54:17.814Z,974.14
2022-08-19T11:55:17.779Z,974.10
2022-08-19T11:56:17.849Z,974.19
2022-08-19T11:57:18.065Z,974.19
2022-08-19T11:58:19.285Z,974.22
2022-08-19T11:59:17.999Z,974.23
2022-08-19T12:00:17.809Z,974.14
2022-08-19T12:01:17.699Z,974.10
2022-08-19T12:02:17.660Z,974.06
2022-08-19T12:03:17.760Z,974.07
2022-08-19T12:04:17.939Z,974.10
2022-08-19T12:05:17.674Z,974.01
2022-08-19T12:06:17.824Z,973.97
2022-08-19T12:07:17.655Z,973.91
2022-08-19T12:08:17.647Z,973.79
2022-08-19T12:09:17.755Z,973.75
2022-08-19T12:10:19.450Z,973.67
2022-08-19T12:11:17.664Z,973.65
2022-08-19T12:12:17.524Z,973.58
2022-08-19T12:13:17.679Z,973.57
2022-08-19T12:14:17.519Z,973.60
2022-08-19T12:15:17.760Z,973.61
2022-08-19T12:16:17.527Z,973.67
2022-08-19T12:17:17.486Z,973.68
2022-08-19T12:18:17.508Z,973.84
2022-08-19T12:19:22.505Z,973.87
2022-08-19T12:20:17.560Z,974.00
2022-08-19T12:21:17.420Z,973.96
2022-08-19T12:22:17.514Z,974.01
2022-08-19T12:23:17.673Z,974.04
2022-08-19T12:24:17.515Z,973.98
2022-08-19T12:25:17.446Z,974.00
2022-08-19T12:26:17.546Z,973.97
2022-08-19T12:27:20.305Z,973.92
2022-08-19T12:28:17.369Z,973.87
2022-08-19T12:29:20.425Z,973.86
2022-08-19T12:30:17.430Z,973.89